• Join FlightAware (Why Join?)
  • Login
  • US Flag 
11:23AM EDT


 

Airport Tracker/Info


-or-


 

Live Flight TrackerFlight Track Log ✈ SLI2201 ✈ 07-Sep-2013 ✈ MMHO / HMO - MMCL / CUL

Flight Track Log - Related Links

Times and Time Zones

All times are in EDT time to prevent confusion due to time zone crossing. See the SLI2201 flight status page for this flight to view local times or setup timezone preferences in your user account.

Time Position Orientation Groundspeed Altitude Reporting Facility
EDT Latitude Longitude Course Direction KTS MPH feet Rate Location/Type
07:44PM 28.9172 -110.8932 143° Southeast  Level Estimated
07:45PM 28.8576 -110.8418 143° Southeast  Level Estimated
07:46PM 28.7980 -110.7904 143° Southeast  Level Estimated
07:47PM 28.7383 -110.7391 143° Southeast  Level Estimated
07:48PM 28.6787 -110.6879 143° Southeast  Level Estimated
07:49PM 28.6190 -110.6367 143° Southeast  Level Estimated
07:50PM 28.5593 -110.5855 143° Southeast  Level Estimated
07:51PM 28.4996 -110.5344 143° Southeast  Level Estimated
07:52PM 28.4398 -110.4834 143° Southeast  Level Estimated
07:53PM 28.3801 -110.4325 143° Southeast  Level Estimated
07:54PM 28.3203 -110.3816 143° Southeast  Level Estimated
07:55PM 28.2605 -110.3307 143° Southeast  Level Estimated
07:56PM 28.2007 -110.2799 143° Southeast  Level Estimated
07:57PM 28.1409 -110.2292 143° Southeast  Level Estimated
07:58PM 28.0810 -110.1785 143° Southeast  Level Estimated
07:59PM 28.0212 -110.1279 143° Southeast  Level Estimated
08:00PM 27.9613 -110.0773 143° Southeast  Level Estimated
08:01PM 27.9014 -110.0268 143° Southeast  Level Estimated
08:02PM 27.8415 -109.9764 143° Southeast  Level Estimated
08:03PM 27.7815 -109.9260 143° Southeast  Level Estimated
08:04PM 27.7216 -109.8756 143° Southeast  Level Estimated
08:05PM 27.6616 -109.8253 143° Southeast  Level Estimated
08:06PM 27.6016 -109.7751 143° Southeast  Level Estimated
08:07PM 27.5416 -109.7249 143° Southeast  Level Estimated
08:08PM 27.4816 -109.6748 143° Southeast  Level Estimated
08:09PM 27.4215 -109.6247 143° Southeast  Level Estimated
08:10PM 27.3614 -109.5747 144° Southeast  Level Estimated
08:11PM 27.3013 -109.5248 144° Southeast  Level Estimated
08:12PM 27.2412 -109.4749 144° Southeast  Level Estimated
08:13PM 27.1811 -109.4250 144° Southeast  Level Estimated
08:14PM 27.1210 -109.3752 144° Southeast  Level Estimated
08:15PM 27.0608 -109.3255 144° Southeast  Level Estimated
08:16PM 27.0007 -109.2758 144° Southeast  Level Estimated
08:17PM 26.9405 -109.2262 144° Southeast  Level Estimated
08:18PM 26.8803 -109.1766 144° Southeast  Level Estimated
08:19PM 26.8200 -109.1270 144° Southeast  Level Estimated
08:20PM 26.7598 -109.0776 144° Southeast  Level Estimated
08:21PM 26.6996 -109.0281 144° Southeast  Level Estimated
08:22PM 26.6393 -108.9788 144° Southeast  Level Estimated
08:23PM 26.5790 -108.9294 144° Southeast  Level Estimated
08:24PM 26.5187 -108.8802 144° Southeast  Level Estimated
08:25PM 26.4583 -108.8309 144° Southeast  Level Estimated
08:26PM 26.3980 -108.7818 144° Southeast  Level Estimated
08:27PM 26.3376 -108.7327 144° Southeast  Level Estimated
08:28PM 26.2773 -108.6836 144° Southeast  Level Estimated
08:29PM 26.2169 -108.6346 144° Southeast  Level Estimated
08:30PM 26.1565 -108.5856 144° Southeast  Level Estimated
08:31PM 26.0960 -108.5367 144° Southeast  Level Estimated
08:32PM 26.0356 -108.4879 144° Southeast  Level Estimated
08:33PM 25.9751 -108.4391 144° Southeast  Level Estimated
08:34PM 25.9146 -108.3903 144° Southeast  Level Estimated
08:35PM 25.8542 -108.3416 144° Southeast  Level Estimated
08:36PM 25.7936 -108.2929 144° Southeast  Level Estimated
08:37PM 25.7331 -108.2443 144° Southeast  Level Estimated
08:38PM 25.6726 -108.1958 144° Southeast  Level Estimated
08:39PM 25.6120 -108.1472 144° Southeast  Level Estimated
08:40PM 25.5515 -108.0988 144° Southeast  Level Estimated
08:41PM 25.4909 -108.0504 144° Southeast  Level Estimated
08:42PM 25.4303 -108.0020 144° Southeast  Level Estimated
08:43PM 25.3696 -107.9537 144° Southeast  Level Estimated
08:44PM 25.3090 -107.9054 144° Southeast  Level Estimated
08:45PM 25.2484 -107.8572 144° Southeast  Level Estimated
08:46PM 25.1877 -107.8090 144° Southeast  Level Estimated
08:47PM 25.1270 -107.7609 144° Southeast  Level Estimated
08:48PM 25.0663 -107.7128 144° Southeast  Level Estimated
08:49PM 25.0056 -107.6648 144° Southeast  Level Estimated
08:50PM 24.9449 -107.6168 144° Southeast  Level Estimated
08:51PM 24.8841 -107.5689 144° Southeast  Level Estimated
08:52PM 24.8234 -107.5210 144° Southeast  Level Estimated
08:53PM 24.7645 -107.4747 144° Southeast  Level Estimated
08:54PM 24.7645 -107.4747 138° Southeast  Level Estimated
08:55PM 24.7645 -107.4747 138° Southeast  Level Estimated
08:56PM 24.7645 -107.4747 138° Southeast  Level Estimated
08:57PM 24.7645 -107.4747 138° Southeast  Level Estimated
08:58PM 24.7645 -107.4747 138° Southeast  Level Estimated
08:59PM 24.7645 -107.4747 138° Southeast  Level Estimated
09:00PM 24.7645 -107.4747 138° Southeast  Level Estimated
09:01PM 24.7645 -107.4747 138° Southeast  Level Estimated
09:02PM 24.7645 -107.4747 138° Southeast  Level Estimated
09:03PM 24.7645 -107.4747 138° Southeast  Level Estimated
09:04PM 24.7645 -107.4747 138° Southeast  Level Estimated
09:05PM 24.7645 -107.4747 138° Southeast  Level Estimated
09:06PM 24.7645 -107.4747 138° Southeast  Level Estimated
09:07PM 24.7645 -107.4747 138° Southeast  Level Estimated
09:08PM 24.7645 -107.4747 138° Southeast  Level Estimated
09:09PM 24.7645 -107.4747 138° Southeast  Level Estimated